First I — 3ESJ5 — position and weather

sailwx.info

Track history (hours):
 
Tides and Currents Weather Stations Pressure Air Temp Water Temp Dewpoint Dewpoint Depression Visibility Wind Speed Wind Dir Waves Ship Positions

First I

Last reported at 2014-Jul-27 13:18 UTC. Time now 2014-Jul-31 19:43 UTC.
Position N 22°51' E 119°14'.

Length 190 m; draft 6.3 m.

MMSI: 370317000.

Date/timePositionNaut miles runAvg speedWind from/ knotsBaromVisibWave heightAir tempDewpointWater temp
2014-Jul-27 13:18N 22°51' E 119°14'8011.7
2014-Jul-27 06:29N 23°57' E 118°25'1212.3
2014-Jul-27 05:33N 24°08' E 118°21'1212.2
2014-Jul-27 04:33N 24°18' E 118°13'1010.5
2014-Jul-27 03:33N 24°25' E 118°05'3 1.6
2014-Jul-27 01:30N 24°27' E 118°01'0 0.0
2014-Jul-26 22:30N 24°27' E 118°01'0 0.0
2014-Jul-26 20:18N 24°27' E 118°01'0 0.0
2014-Jul-26 19:24N 24°27' E 118°01'0 0.0
2014-Jul-26 17:24N 24°27' E 118°01'0 0.0
2014-Jul-26 16:30N 24°27' E 118°01'0 0.0
2014-Jul-26 15:30N 24°27' E 118°01'0 0.0
2014-Jul-26 10:18N 24°27' E 118°01'0 0.0
2014-Jul-26 09:30N 24°27' E 118°01'0 0.0
2014-Jul-26 07:30N 24°27' E 118°01'0 0.0
2014-Jul-26 06:12N 24°27' E 118°01'0 0.0
2014-Jul-26 05:24N 24°27' E 118°01'0 0.0
2014-Jul-26 04:18N 24°27' E 118°01'0 0.1
2014-Jul-26 03:26N 24°27' E 118°01'0 0.1
2014-Jul-26 02:24N 24°27' E 118°01'0 0.0
2014-Jul-26 01:30N 24°27' E 118°01'0 0.0
2014-Jul-26 00:31N 24°27' E 118°01'0 0.0
2014-Jul-25 23:30N 24°27' E 118°01'0 0.0
2014-Jul-25 22:30N 24°27' E 118°01'0 0.0
2014-Jul-25 21:24N 24°27' E 118°01'0 0.0
2014-Jul-25 20:30N 24°27' E 118°01'0 0.0
2014-Jul-25 19:30N 24°27' E 118°01'0 0.0
2014-Jul-25 18:18N 24°27' E 118°01'0 0.0
2014-Jul-25 17:18N 24°27' E 118°01'0 0.0
2014-Jul-25 15:30N 24°27' E 118°01'0 0.0
2014-Jul-25 10:30N 24°27' E 118°01'0 0.0
2014-Jul-25 09:30N 24°27' E 118°01'0 0.0
2014-Jul-25 08:30N 24°27' E 118°01'0 0.0
2014-Jul-25 07:18N 24°27' E 118°01'0 0.1
2014-Jul-25 06:30N 24°27' E 118°01'0 0.0
2014-Jul-25 05:12N 24°27' E 118°01'0 0.0
2014-Jul-25 04:24N 24°27' E 118°01'0 0.1
2014-Jul-25 03:30N 24°27' E 118°01'0 0.0
2014-Jul-25 01:24N 24°27' E 118°01'0 0.1
2014-Jul-25 00:30N 24°27' E 118°01'0 0.0
2014-Jul-24 23:30N 24°27' E 118°01'0 0.0
2014-Jul-24 22:30N 24°27' E 118°01'0 0.0
2014-Jul-24 21:24N 24°27' E 118°01'0 0.0
2014-Jul-24 20:30N 24°27' E 118°01'0 0.0
2014-Jul-24 19:24N 24°27' E 118°01'0 0.0
2014-Jul-24 18:24N 24°27' E 118°01'0 0.0
2014-Jul-24 16:06N 24°27' E 118°01'0 0.0
2014-Jul-24 15:24N 24°27' E 118°01'0 0.0
2014-Jul-24 10:30N 24°27' E 118°01'0 0.0
2014-Jul-24 09:30N 24°27' E 118°01'0 0.2
2014-Jul-24 06:33N 24°26' E 118°02'7 6.8
2014-Jul-24 05:33N 24°22' E 118°08'9 9.2
2014-Jul-24 04:33N 24°16' E 118°15'4 2.5
2014-Jul-24 03:04N 24°15' E 118°19'0 0.0
2014-Jul-24 01:28N 24°15' E 118°19'0 0.0
2014-Jul-24 00:10N 24°15' E 118°19'0 0.0
2014-Jul-23 21:16N 24°15' E 118°19'0 0.0
2014-Jul-23 18:22N 24°15' E 118°19'0 0.0
2014-Jul-23 11:22N 24°15' E 118°19'0 0.0
2014-Jul-23 09:28N 24°15' E 118°19'0 0.1
2014-Jul-23 08:10N 24°15' E 118°19'0 0.1
2014-Jul-23 07:16N 24°14' E 118°19'0 0.1
2014-Jul-23 06:29N 24°14' E 118°19'0 0.1
2014-Jul-23 05:28N 24°14' E 118°18'0 0.1
2014-Jul-23 04:22N 24°14' E 118°18'0 0.1
2014-Jul-23 03:16N 24°14' E 118°18'0 0.0
2014-Jul-23 02:28N 24°14' E 118°18'0 0.1
2014-Jul-23 01:22N 24°14' E 118°18'0 0.0
2014-Jul-23 00:22N 24°14' E 118°18'0 0.0
2014-Jul-22 23:32N 24°14' E 118°18'0 0.1
2014-Jul-22 22:32N 24°14' E 118°18'0 0.0
2014-Jul-22 21:26N 24°14' E 118°18'0 0.1
2014-Jul-22 20:28N 24°14' E 118°18'0 0.1
2014-Jul-22 19:26N 24°14' E 118°18'0 0.0
2014-Jul-22 18:32N 24°14' E 118°18'0 0.1
2014-Jul-22 17:28N 24°14' E 118°18'0 0.0
2014-Jul-22 16:32N 24°14' E 118°18'0 0.1
2014-Jul-22 15:26N 24°14' E 118°18'0 0.0
2014-Jul-22 14:26N 24°14' E 118°18'0 0.0
2014-Jul-22 13:32N 24°14' E 118°18'0 0.0
2014-Jul-22 11:26N 24°14' E 118°18'0 0.0
2014-Jul-22 10:08N 24°14' E 118°18'0 0.0
2014-Jul-22 09:20N 24°14' E 118°18'0 0.0
2014-Jul-22 08:28N 24°14' E 118°18'0 0.1
2014-Jul-22 07:22N 24°14' E 118°18'0 0.0
2014-Jul-22 06:28N 24°14' E 118°18'0 0.0
2014-Jul-22 05:28N 24°14' E 118°18'0 0.1
2014-Jul-22 04:28N 24°14' E 118°18'0 0.4
2014-Jul-22 03:34N 24°14' E 118°18'3 2.8
2014-Jul-22 02:34N 24°11' E 118°19'7 6.9
2014-Jul-22 01:33N 24°05' E 118°22'9 9.4
2014-Jul-22 00:33N 23°56' E 118°25'  
Track history (hours):
 
Tides and Currents Weather Stations Pressure Air Temp Water Temp Dewpoint Dewpoint Depression Visibility Wind Speed Wind Dir Waves Ship Positions

First I

Last reported at 2014-Jul-27 13:18 UTC. Time now 2014-Jul-31 19:43 UTC.
Position N 22°51' E 119°14'.

Length 190 m; draft 6.3 m.

MMSI: 370317000.

Date/timePositionNaut miles runAvg speedWind from/ knotsBaromVisibWave heightAir tempDewpointWater temp
2014-Jul-27 13:18N 22°51' E 119°14'8011.7
2014-Jul-27 06:29N 23°57' E 118°25'1212.3
2014-Jul-27 05:33N 24°08' E 118°21'1212.2
2014-Jul-27 04:33N 24°18' E 118°13'1010.5
2014-Jul-27 03:33N 24°25' E 118°05'3 1.6
2014-Jul-27 01:30N 24°27' E 118°01'0 0.0
2014-Jul-26 22:30N 24°27' E 118°01'0 0.0
2014-Jul-26 20:18N 24°27' E 118°01'0 0.0
2014-Jul-26 19:24N 24°27' E 118°01'0 0.0
2014-Jul-26 17:24N 24°27' E 118°01'0 0.0
2014-Jul-26 16:30N 24°27' E 118°01'0 0.0
2014-Jul-26 15:30N 24°27' E 118°01'0 0.0
2014-Jul-26 10:18N 24°27' E 118°01'0 0.0
2014-Jul-26 09:30N 24°27' E 118°01'0 0.0
2014-Jul-26 07:30N 24°27' E 118°01'0 0.0
2014-Jul-26 06:12N 24°27' E 118°01'0 0.0
2014-Jul-26 05:24N 24°27' E 118°01'0 0.0
2014-Jul-26 04:18N 24°27' E 118°01'0 0.1
2014-Jul-26 03:26N 24°27' E 118°01'0 0.1
2014-Jul-26 02:24N 24°27' E 118°01'0 0.0
2014-Jul-26 01:30N 24°27' E 118°01'0 0.0
2014-Jul-26 00:31N 24°27' E 118°01'0 0.0
2014-Jul-25 23:30N 24°27' E 118°01'0 0.0
2014-Jul-25 22:30N 24°27' E 118°01'0 0.0
2014-Jul-25 21:24N 24°27' E 118°01'0 0.0
2014-Jul-25 20:30N 24°27' E 118°01'0 0.0
2014-Jul-25 19:30N 24°27' E 118°01'0 0.0
2014-Jul-25 18:18N 24°27' E 118°01'0 0.0
2014-Jul-25 17:18N 24°27' E 118°01'0 0.0
2014-Jul-25 15:30N 24°27' E 118°01'0 0.0
2014-Jul-25 10:30N 24°27' E 118°01'0 0.0
2014-Jul-25 09:30N 24°27' E 118°01'0 0.0
2014-Jul-25 08:30N 24°27' E 118°01'0 0.0
2014-Jul-25 07:18N 24°27' E 118°01'0 0.1
2014-Jul-25 06:30N 24°27' E 118°01'0 0.0
2014-Jul-25 05:12N 24°27' E 118°01'0 0.0
2014-Jul-25 04:24N 24°27' E 118°01'0 0.1
2014-Jul-25 03:30N 24°27' E 118°01'0 0.0
2014-Jul-25 01:24N 24°27' E 118°01'0 0.1
2014-Jul-25 00:30N 24°27' E 118°01'0 0.0
2014-Jul-24 23:30N 24°27' E 118°01'0 0.0
2014-Jul-24 22:30N 24°27' E 118°01'0 0.0
2014-Jul-24 21:24N 24°27' E 118°01'0 0.0
2014-Jul-24 20:30N 24°27' E 118°01'0 0.0
2014-Jul-24 19:24N 24°27' E 118°01'0 0.0
2014-Jul-24 18:24N 24°27' E 118°01'0 0.0
2014-Jul-24 16:06N 24°27' E 118°01'0 0.0
2014-Jul-24 15:24N 24°27' E 118°01'0 0.0
2014-Jul-24 10:30N 24°27' E 118°01'0 0.0
2014-Jul-24 09:30N 24°27' E 118°01'0 0.2
2014-Jul-24 06:33N 24°26' E 118°02'7 6.8
2014-Jul-24 05:33N 24°22' E 118°08'9 9.2
2014-Jul-24 04:33N 24°16' E 118°15'4 2.5
2014-Jul-24 03:04N 24°15' E 118°19'0 0.0
2014-Jul-24 01:28N 24°15' E 118°19'0 0.0
2014-Jul-24 00:10N 24°15' E 118°19'0 0.0
2014-Jul-23 21:16N 24°15' E 118°19'0 0.0
2014-Jul-23 18:22N 24°15' E 118°19'0 0.0
2014-Jul-23 11:22N 24°15' E 118°19'0 0.0
2014-Jul-23 09:28N 24°15' E 118°19'0 0.1
2014-Jul-23 08:10N 24°15' E 118°19'0 0.1
2014-Jul-23 07:16N 24°14' E 118°19'0 0.1
2014-Jul-23 06:29N 24°14' E 118°19'0 0.1
2014-Jul-23 05:28N 24°14' E 118°18'0 0.1
2014-Jul-23 04:22N 24°14' E 118°18'0 0.1
2014-Jul-23 03:16N 24°14' E 118°18'0 0.0
2014-Jul-23 02:28N 24°14' E 118°18'0 0.1
2014-Jul-23 01:22N 24°14' E 118°18'0 0.0
2014-Jul-23 00:22N 24°14' E 118°18'0 0.0
2014-Jul-22 23:32N 24°14' E 118°18'0 0.1
2014-Jul-22 22:32N 24°14' E 118°18'0 0.0
2014-Jul-22 21:26N 24°14' E 118°18'0 0.1
2014-Jul-22 20:28N 24°14' E 118°18'0 0.1
2014-Jul-22 19:26N 24°14' E 118°18'0 0.0
2014-Jul-22 18:32N 24°14' E 118°18'0 0.1
2014-Jul-22 17:28N 24°14' E 118°18'0 0.0
2014-Jul-22 16:32N 24°14' E 118°18'0 0.1
2014-Jul-22 15:26N 24°14' E 118°18'0 0.0
2014-Jul-22 14:26N 24°14' E 118°18'0 0.0
2014-Jul-22 13:32N 24°14' E 118°18'0 0.0
2014-Jul-22 11:26N 24°14' E 118°18'0 0.0
2014-Jul-22 10:08N 24°14' E 118°18'0 0.0
2014-Jul-22 09:20N 24°14' E 118°18'0 0.0
2014-Jul-22 08:28N 24°14' E 118°18'0 0.1
2014-Jul-22 07:22N 24°14' E 118°18'0 0.0
2014-Jul-22 06:28N 24°14' E 118°18'0 0.0
2014-Jul-22 05:28N 24°14' E 118°18'0 0.1
2014-Jul-22 04:28N 24°14' E 118°18'0 0.4
2014-Jul-22 03:34N 24°14' E 118°18'3 2.8
2014-Jul-22 02:34N 24°11' E 118°19'7 6.9
2014-Jul-22 01:33N 24°05' E 118°22'9 9.4
2014-Jul-22 00:33N 23°56' E 118°25'  

Dump ship's entire track history